Ashmore, Illinois
Current Conditions -  °F | °C
As of 12:53 PM on Sunday 23 Nov 2014 (Local Time) from KMTO Reporting Station
Overcast Overcast  
Wind Chill: 50°   Ceiling: 700
Heat Index: 50°   Visibility: 10mi
Dew Point: 48°   Wind: 15mph
Humidity: 93%   Direction: 150°SSE
Pressure: 29.55"   Gusts: NA
Location:  39.53°N, 88.02°W
Report Text: KMTO 231853Z AUTO 15013KT 10SM OVC007 10/09 A2955 RMK AO2 RAB1758E21 SLP007 P0000 T01000089
Loading
Personal Weather Stations






























Interactive Weather Map New forecast layout! Learn more

10-Day Weather Forecast

Advertisements
Track Severe Weather on mobile